Time;durP1;ratioP1;P1;durP2;ratioP2;P2;SDS_P1;SDS_P2;PMS_P1;PMS_P2;Temp;Humidity;BMP_temperature;BMP_pressure;BME280_temperature;BME280_humidity;BME280_pressure;Samples;Min_cycle;Max_cycle;Signal;HPM_P1;HPM_P2
2023/12/03 00:01:48;;;;;;;7.80;7.40;;;15.60;62.60;;;;;;5066159;28;43413;-70
2023/12/03 00:04:16;;;;;;;7.53;7.03;;;15.50;62.60;;;;;;5066964;28;44025;-70
2023/12/03 00:06:44;;;;;;;7.97;7.50;;;15.50;62.60;;;;;;5066950;28;43411;-70
2023/12/03 00:09:14;;;;;;;8.30;7.73;;;15.50;62.50;;;;;;5067115;28;44109;-70
2023/12/03 00:11:43;;;;;;;7.57;7.07;;;15.60;62.30;;;;;;5062242;28;43957;-71
2023/12/03 00:14:10;;;;;;;8.27;7.67;;;15.60;62.20;;;;;;5066697;28;43611;-70
2023/12/03 00:16:38;;;;;;;7.50;7.00;;;15.60;62.10;;;;;;5067343;28;43446;-70
2023/12/03 00:19:06;;;;;;;7.83;7.33;;;15.60;62.10;;;;;;5067173;28;43558;-71
2023/12/03 00:21:35;;;;;;;8.03;7.53;;;15.60;62.20;;;;;;5065358;28;43447;-70
2023/12/03 00:24:03;;;;;;;8.17;7.57;;;15.60;62.30;;;;;;5064905;28;44849;-70
2023/12/03 00:26:32;;;;;;;7.50;7.10;;;15.60;62.30;;;;;;5066461;28;43837;-70
2023/12/03 00:29:00;;;;;;;7.27;6.87;;;15.60;62.40;;;;;;5065015;28;43443;-70
2023/12/03 00:31:28;;;;;;;7.30;6.90;;;15.60;62.40;;;;;;5064969;28;43884;-70
2023/12/03 00:33:56;;;;;;;7.50;7.10;;;15.60;62.40;;;;;;5066355;28;43871;-70
2023/12/03 00:36:25;;;;;;;8.00;7.50;;;15.60;62.50;;;;;;5065788;28;43924;-70
2023/12/03 00:38:53;;;;;;;8.10;7.60;;;15.50;62.40;;;;;;5066679;28;43446;-70
2023/12/03 00:41:21;;;;;;;8.27;7.83;;;15.50;62.40;;;;;;5066859;28;43971;-70
2023/12/03 00:43:50;;;;;;;7.90;7.50;;;15.50;62.40;;;;;;5065770;28;45789;-70
2023/12/03 00:46:18;;;;;;;8.03;7.63;;;15.50;62.20;;;;;;5066817;28;43425;-70
2023/12/03 00:48:46;;;;;;;7.80;7.40;;;15.60;62.10;;;;;;5066744;28;43517;-71
2023/12/03 00:51:15;;;;;;;7.50;7.10;;;15.60;62.20;;;;;;5066912;28;43455;-71
2023/12/03 00:53:43;;;;;;;7.10;6.73;;;15.60;62.20;;;;;;5066501;28;43896;-70
2023/12/03 00:56:11;;;;;;;8.07;7.57;;;15.60;62.20;;;;;;5066565;28;43501;-70
2023/12/03 00:58:39;;;;;;;8.03;7.53;;;15.60;62.30;;;;;;5066478;28;43370;-70
2023/12/03 01:01:09;;;;;;;8.20;7.70;;;15.50;62.10;;;;;;5066745;28;43422;-70
2023/12/03 01:03:37;;;;;;;7.90;7.50;;;15.50;62.20;;;;;;5072098;28;43921;-69
2023/12/03 01:06:05;;;;;;;7.67;7.27;;;15.60;62.30;;;;;;5085640;28;43489;-69
2023/12/03 01:08:33;;;;;;;7.40;7.00;;;15.50;62.20;;;;;;5083061;28;43469;-69
2023/12/03 01:11:04;;;;;;;7.60;7.20;;;15.50;62.30;;;;;;5085948;28;43438;-69
2023/12/03 01:13:32;;;;;;;7.47;7.07;;;15.50;62.30;;;;;;5086614;28;43854;-70
2023/12/03 01:16:01;;;;;;;8.13;7.67;;;15.50;62.30;;;;;;5087001;28;43360;-69
2023/12/03 01:18:30;;;;;;;8.30;7.80;;;15.50;62.30;;;;;;5087336;28;43966;-69
2023/12/03 01:20:58;;;;;;;7.70;7.30;;;15.50;62.30;;;;;;5086661;28;43456;-69
2023/12/03 01:23:26;;;;;;;7.40;7.10;;;15.50;62.40;;;;;;5086412;28;44586;-70
2023/12/03 01:25:55;;;;;;;7.47;7.07;;;15.50;62.30;;;;;;5086992;28;43542;-69
2023/12/03 01:28:23;;;;;;;7.67;7.27;;;15.50;62.30;;;;;;5087196;28;43732;-69
2023/12/03 01:30:51;;;;;;;8.07;7.57;;;15.50;62.40;;;;;;5087683;28;43449;-69
2023/12/03 01:33:19;;;;;;;8.07;7.57;;;15.50;62.40;;;;;;5085669;28;43753;-69
2023/12/03 01:35:48;;;;;;;7.97;7.47;;;15.50;62.40;;;;;;5085753;28;44727;-70
2023/12/03 01:38:16;;;;;;;8.13;7.63;;;15.50;62.30;;;;;;5086750;28;43456;-70
2023/12/03 01:40:52;;;;;;;8.80;8.20;;;15.50;62.20;;;;;;5086666;28;43443;-69
2023/12/03 01:43:20;;;;;;;8.03;7.63;;;15.60;61.90;;;;;;5102041;28;45922;-69
2023/12/03 01:45:48;;;;;;;8.90;8.30;;;15.70;61.50;;;;;;5087128;28;44034;-69
2023/12/03 01:48:16;;;;;;;7.70;7.30;;;15.80;61.40;;;;;;5086557;28;43774;-69
2023/12/03 01:50:44;;;;;;;8.50;8.00;;;15.70;61.40;;;;;;5099136;28;43442;-69
2023/12/03 01:53:13;;;;;;;7.50;7.10;;;15.70;61.60;;;;;;5086533;28;43602;-69
2023/12/03 01:55:41;;;;;;;8.23;7.73;;;15.70;61.60;;;;;;5091941;28;43363;-69
2023/12/03 01:58:09;;;;;;;7.97;7.57;;;15.60;61.60;;;;;;5091948;28;43814;-66
2023/12/03 02:00:38;;;;;;;7.33;7.00;;;15.60;61.70;;;;;;5091667;28;43416;-66
2023/12/03 02:03:14;;;;;;;7.80;7.40;;;15.60;61.80;;;;;;5087097;28;45750;-67
2023/12/03 02:05:42;;;;;;;7.93;7.53;;;15.60;61.80;;;;;;5091335;28;43434;-67
2023/12/03 02:08:10;;;;;;;7.83;7.43;;;15.60;61.90;;;;;;5091375;28;44219;-69
2023/12/03 02:10:40;;;;;;;8.53;8.03;;;15.50;61.90;;;;;;5090026;28;43434;-66
2023/12/03 02:13:08;;;;;;;7.93;7.53;;;15.50;61.90;;;;;;5092054;28;43631;-69
2023/12/03 02:15:36;;;;;;;7.33;7.03;;;15.50;62.00;;;;;;5092387;28;43562;-67
2023/12/03 02:18:04;;;;;;;6.70;6.40;;;15.50;62.00;;;;;;5093313;28;43450;-69
2023/12/03 02:20:32;;;;;;;8.40;7.90;;;15.50;62.00;;;;;;5091890;28;43439;-67
2023/12/03 02:23:01;;;;;;;7.53;7.13;;;15.50;62.10;;;;;;5091021;28;44606;-70
2023/12/03 02:25:29;;;;;;;7.00;6.70;;;15.50;62.10;;;;;;5087325;28;43517;-69
2023/12/03 02:27:57;;;;;;;7.20;6.90;;;15.50;62.20;;;;;;5087211;28;43449;-70
2023/12/03 02:30:25;;;;;;;7.87;7.50;;;15.50;62.20;;;;;;5087430;28;43362;-69
2023/12/03 02:32:53;;;;;;;7.60;7.20;;;15.50;62.20;;;;;;5084613;28;44086;-69
2023/12/03 02:35:21;;;;;;;7.53;7.20;;;15.50;62.20;;;;;;5066087;28;43605;-69
2023/12/03 02:37:49;;;;;;;7.63;7.23;;;15.50;62.20;;;;;;5068181;28;43406;-70
2023/12/03 02:40:19;;;;;;;7.23;6.90;;;15.50;62.20;;;;;;5066187;28;43994;-70
2023/12/03 02:42:47;;;;;;;7.63;7.23;;;15.50;62.20;;;;;;5066538;28;45057;-70
2023/12/03 02:45:15;;;;;;;8.10;7.70;;;15.50;62.20;;;;;;5068607;28;43391;-70
2023/12/03 02:47:43;;;;;;;8.03;7.63;;;15.40;62.10;;;;;;5067631;28;43557;-70
2023/12/03 02:50:11;;;;;;;8.07;7.67;;;15.50;62.10;;;;;;5068488;28;43459;-70
2023/12/03 02:52:40;;;;;;;8.07;7.67;;;15.50;61.90;;;;;;5067679;28;43623;-70
2023/12/03 02:55:09;;;;;;;7.93;7.53;;;15.60;61.50;;;;;;5067936;28;43440;-70
2023/12/03 02:57:38;;;;;;;8.30;7.80;;;15.70;61.40;;;;;;5068769;28;43930;-69
2023/12/03 03:00:07;;;;;;;7.97;7.57;;;15.70;61.40;;;;;;5069092;28;43470;-69
2023/12/03 03:02:36;;;;;;;7.90;7.50;;;15.70;61.50;;;;;;5067915;28;43751;-70
2023/12/03 03:05:04;;;;;;;8.37;7.97;;;15.60;61.50;;;;;;5067740;28;43415;-69
2023/12/03 03:07:32;;;;;;;7.70;7.40;;;15.60;61.40;;;;;;5067422;28;44305;-69
2023/12/03 03:10:00;;;;;;;7.83;7.43;;;15.60;61.60;;;;;;5068186;28;43699;-70
2023/12/03 03:12:28;;;;;;;7.47;7.10;;;15.60;61.70;;;;;;5067699;28;43840;-69
2023/12/03 03:14:58;;;;;;;8.10;7.70;;;15.50;62.40;;;;;;5089421;28;43404;-66
2023/12/03 03:17:26;;;;;;;8.27;7.77;;;15.50;61.80;;;;;;5091220;28;43489;-66
2023/12/03 03:19:54;;;;;;;7.80;7.40;;;15.50;61.80;;;;;;5091729;28;43430;-68
2023/12/03 03:22:22;;;;;;;7.70;7.30;;;15.50;61.90;;;;;;5090878;28;43613;-66
2023/12/03 03:24:51;;;;;;;7.70;7.30;;;15.50;61.90;;;;;;5090025;28;43426;-68
2023/12/03 03:27:19;;;;;;;8.00;7.57;;;15.50;61.90;;;;;;5090329;28;43395;-67
2023/12/03 03:29:47;;;;;;;8.20;7.80;;;15.50;61.90;;;;;;5090797;28;43497;-66
2023/12/03 03:32:16;;;;;;;7.17;6.77;;;15.40;61.90;;;;;;5090050;28;43627;-67
2023/12/03 03:34:44;;;;;;;7.40;7.10;;;15.40;61.90;;;;;;5093163;28;43431;-67
2023/12/03 03:37:12;;;;;;;7.70;7.30;;;15.40;62.00;;;;;;5090246;28;43419;-67
2023/12/03 03:39:40;;;;;;;8.60;8.10;;;15.40;62.00;;;;;;5091380;28;43960;-66
2023/12/03 03:42:08;;;;;;;8.20;7.80;;;15.40;62.00;;;;;;5090971;28;43599;-67
2023/12/03 03:44:36;;;;;;;7.83;7.43;;;15.40;62.00;;;;;;5091080;28;43358;-67
2023/12/03 03:47:04;;;;;;;8.00;7.60;;;15.50;61.60;;;;;;5090266;28;43563;-66
2023/12/03 03:49:34;;;;;;;8.17;7.77;;;15.50;61.20;;;;;;5090041;28;43434;-67
2023/12/03 03:52:02;;;;;;;7.50;7.20;;;15.60;61.40;;;;;;5088618;28;43911;-66
2023/12/03 03:54:31;;;;;;;7.63;7.23;;;15.60;61.40;;;;;;5090090;28;43402;-65
2023/12/03 03:56:59;;;;;;;7.63;7.27;;;15.60;61.70;;;;;;5090863;28;43452;-67
2023/12/03 03:59:27;;;;;;;8.10;7.60;;;15.50;61.60;;;;;;5090782;28;43420;-69
2023/12/03 04:01:55;;;;;;;8.07;7.67;;;15.50;61.60;;;;;;5090381;28;44323;-66
2023/12/03 04:04:23;;;;;;;8.03;7.63;;;15.50;61.60;;;;;;5090191;28;43429;-65
2023/12/03 04:06:52;;;;;;;7.47;7.13;;;15.50;61.80;;;;;;5090785;28;43414;-67
2023/12/03 04:09:20;;;;;;;8.03;7.63;;;15.50;61.80;;;;;;5088569;28;43590;-67
2023/12/03 04:11:48;;;;;;;8.20;7.80;;;15.50;61.80;;;;;;5089838;28;43866;-68
2023/12/03 04:14:17;;;;;;;8.13;7.67;;;15.50;61.90;;;;;;5090147;28;43586;-65
2023/12/03 04:16:45;;;;;;;8.17;7.77;;;15.50;61.90;;;;;;5090733;28;43376;-65
2023/12/03 04:19:13;;;;;;;7.93;7.53;;;15.50;61.90;;;;;;5089907;28;43503;-67
2023/12/03 04:21:41;;;;;;;7.93;7.53;;;15.40;61.90;;;;;;5088384;28;43685;-66
2023/12/03 04:24:10;;;;;;;7.70;7.30;;;15.50;61.90;;;;;;5089776;28;43402;-65
2023/12/03 04:26:40;;;;;;;7.50;7.10;;;15.50;62.00;;;;;;5089735;28;43435;-66
2023/12/03 04:29:08;;;;;;;7.67;7.27;;;15.50;61.90;;;;;;5091907;28;43439;-66
2023/12/03 04:31:36;;;;;;;7.43;7.13;;;15.50;62.00;;;;;;5091048;27;43638;-66
2023/12/03 04:34:04;;;;;;;7.67;7.27;;;15.40;61.90;;;;;;5089341;28;43384;-67
2023/12/03 04:36:33;;;;;;;8.00;7.60;;;15.40;61.90;;;;;;5090091;28;43427;-66
2023/12/03 04:39:01;;;;;;;7.40;7.10;;;15.50;61.90;;;;;;5089142;28;43325;-65
2023/12/03 04:41:35;;;;;;;8.20;7.80;;;15.50;61.60;;;;;;5089544;28;43930;-66
2023/12/03 04:44:04;;;;;;;8.13;7.73;;;15.60;61.40;;;;;;5089480;28;43441;-65
2023/12/03 04:46:32;;;;;;;8.07;7.67;;;15.60;61.30;;;;;;5088098;28;43432;-66
2023/12/03 04:49:00;;;;;;;7.87;7.47;;;15.60;61.30;;;;;;5090626;28;43352;-66
2023/12/03 04:51:28;;;;;;;7.93;7.53;;;15.60;61.40;;;;;;5089505;28;43714;-68
2023/12/03 04:53:56;;;;;;;9.17;8.30;;;15.60;61.40;;;;;;5079195;28;43954;-70
2023/12/03 04:56:24;;;;;;;8.27;7.77;;;15.60;61.50;;;;;;5066875;28;44083;-71
2023/12/03 04:58:53;;;;;;;7.47;7.10;;;15.60;61.50;;;;;;5065297;28;43466;-70
2023/12/03 05:01:21;;;;;;;8.10;7.60;;;15.60;61.60;;;;;;5066675;28;44119;-71
2023/12/03 05:03:49;;;;;;;8.07;7.57;;;15.60;61.70;;;;;;5066472;28;43409;-70
2023/12/03 05:06:17;;;;;;;8.63;8.03;;;15.60;61.70;;;;;;5066157;28;43778;-70
2023/12/03 05:08:46;;;;;;;7.57;7.27;;;15.50;61.60;;;;;;5065863;28;43471;-71
2023/12/03 05:11:14;;;;;;;8.20;7.80;;;15.50;61.70;;;;;;5063705;28;43642;-71
2023/12/03 05:13:42;;;;;;;7.93;7.53;;;15.50;61.70;;;;;;5066306;28;43470;-71
2023/12/03 05:16:11;;;;;;;7.93;7.43;;;15.50;61.70;;;;;;5065417;28;43392;-70
2023/12/03 05:18:39;;;;;;;7.87;7.30;;;15.50;61.70;;;;;;5066010;28;43447;-70
2023/12/03 05:21:09;;;;;;;7.47;7.17;;;15.50;61.80;;;;;;5065433;28;43595;-70
2023/12/03 05:23:36;;;;;;;7.37;7.07;;;15.50;61.80;;;;;;5064768;28;43537;-70
2023/12/03 05:26:05;;;;;;;7.83;7.43;;;15.50;61.80;;;;;;5065769;28;43451;-70
2023/12/03 05:28:33;;;;;;;8.77;8.07;;;15.50;61.80;;;;;;5066496;28;43485;-70
2023/12/03 05:31:01;;;;;;;8.03;7.63;;;15.50;61.80;;;;;;5064744;28;44614;-70
2023/12/03 05:33:31;;;;;;;8.27;7.80;;;15.50;61.70;;;;;;5066432;28;43449;-72
2023/12/03 05:35:59;;;;;;;8.20;7.53;;;15.50;61.60;;;;;;5065959;28;43508;-72
2023/12/03 05:38:27;;;;;;;7.90;7.50;;;15.60;61.20;;;;;;5066056;28;44032;-72
2023/12/03 05:40:55;;;;;;;7.47;7.10;;;15.60;61.10;;;;;;5065818;28;43884;-72
2023/12/03 05:43:23;;;;;;;7.50;7.20;;;15.60;61.10;;;;;;5065806;28;44008;-72
2023/12/03 05:45:51;;;;;;;8.23;7.83;;;15.60;61.30;;;;;;5064410;28;43788;-72
2023/12/03 05:48:21;;;;;;;8.00;7.60;;;15.60;61.40;;;;;;5064498;28;43440;-72
2023/12/03 05:50:50;;;;;;;7.90;7.50;;;15.60;61.30;;;;;;5067814;28;43855;-72
2023/12/03 05:53:18;;;;;;;7.47;7.17;;;15.60;61.40;;;;;;5068856;28;44794;-72
2023/12/03 05:55:46;;;;;;;7.80;7.43;;;15.60;61.50;;;;;;5069559;28;43810;-72
2023/12/03 05:58:14;;;;;;;7.20;6.90;;;15.50;61.50;;;;;;5070083;28;43371;-72
2023/12/03 06:00:42;;;;;;;7.67;7.27;;;15.50;61.60;;;;;;5069084;28;43606;-72
2023/12/03 06:03:10;;;;;;;7.97;7.47;;;15.50;61.60;;;;;;5070071;28;44007;-72
2023/12/03 06:05:38;;;;;;;7.93;7.53;;;15.50;61.70;;;;;;5068733;28;43536;-72
2023/12/03 06:08:08;;;;;;;7.70;7.30;;;15.50;61.60;;;;;;5069304;28;43956;-71
2023/12/03 06:10:36;;;;;;;8.23;7.83;;;15.50;61.60;;;;;;5064447;28;43971;-72
2023/12/03 06:13:04;;;;;;;7.50;7.20;;;15.60;61.40;;;;;;5068923;28;43472;-71
2023/12/03 06:15:32;;;;;;;8.23;7.70;;;15.60;61.30;;;;;;5068156;28;43496;-72
2023/12/03 06:18:00;;;;;;;7.10;6.80;;;15.60;61.30;;;;;;5069320;28;43995;-72
2023/12/03 06:20:28;;;;;;;7.23;6.83;;;15.60;61.30;;;;;;5068730;28;43925;-71
2023/12/03 06:22:56;;;;;;;7.70;7.30;;;15.60;61.40;;;;;;5066460;28;43478;-71
2023/12/03 06:25:25;;;;;;;7.43;7.13;;;15.60;61.40;;;;;;5069163;28;43435;-71
2023/12/03 06:27:53;;;;;;;7.80;7.40;;;15.60;61.40;;;;;;5064965;28;43959;-70
2023/12/03 06:30:21;;;;;;;7.00;6.70;;;15.60;61.50;;;;;;5068545;28;43759;-71
2023/12/03 06:32:49;;;;;;;7.77;7.30;;;15.60;61.40;;;;;;5068408;28;43506;-71
2023/12/03 06:35:18;;;;;;;7.90;7.50;;;15.60;61.50;;;;;;5068772;28;43465;-72
2023/12/03 06:37:46;;;;;;;7.10;6.80;;;15.60;61.50;;;;;;5069113;28;43924;-72
2023/12/03 06:40:15;;;;;;;7.17;6.87;;;15.60;61.60;;;;;;5091034;27;43733;-71
2023/12/03 06:42:47;;;;;;;7.43;7.03;;;15.60;61.60;;;;;;5095396;27;43439;-72
2023/12/03 06:45:15;;;;;;;7.43;7.13;;;15.50;61.60;;;;;;5096507;27;43510;-71
2023/12/03 06:47:43;;;;;;;7.67;7.27;;;15.50;61.60;;;;;;5095262;27;43499;-71
2023/12/03 06:50:11;;;;;;;7.07;6.77;;;15.50;61.50;;;;;;5093148;27;43945;-72
2023/12/03 06:52:39;;;;;;;7.30;7.00;;;15.60;61.60;;;;;;5099609;27;44003;-70
2023/12/03 06:55:08;;;;;;;7.23;6.93;;;15.50;61.60;;;;;;5092747;27;43568;-71
2023/12/03 06:57:36;;;;;;;7.07;6.77;;;15.50;61.60;;;;;;5099452;27;44918;-73
2023/12/03 07:00:07;;;;;;;8.07;7.63;;;15.50;61.60;;;;;;5093408;27;44806;-72
2023/12/03 07:02:35;;;;;;;7.60;7.20;;;15.50;61.70;;;;;;5093282;27;44166;-72
2023/12/03 07:05:04;;;;;;;7.30;7.00;;;15.50;61.70;;;;;;5092440;27;43469;-72
2023/12/03 07:07:32;;;;;;;7.53;7.13;;;15.60;61.40;;;;;;5103123;27;43542;-72
2023/12/03 07:10:00;;;;;;;7.47;7.10;;;15.60;61.10;;;;;;5113227;27;43604;-72
2023/12/03 07:12:28;;;;;;;7.40;7.10;;;15.70;61.00;;;;;;5111801;27;44045;-71
2023/12/03 07:14:56;;;;;;;6.63;6.40;;;15.70;61.00;;;;;;5134690;27;43818;-70
2023/12/03 07:17:25;;;;;;;6.83;6.53;;;15.70;61.10;;;;;;5132590;27;43402;-69
2023/12/03 07:19:53;;;;;;;7.10;6.80;;;15.60;61.10;;;;;;5135824;27;43894;-69
2023/12/03 07:22:21;;;;;;;7.63;7.23;;;15.60;61.10;;;;;;5137505;27;43346;-70
2023/12/03 07:24:49;;;;;;;7.30;6.70;;;15.60;61.10;;;;;;5134489;27;43457;-70
2023/12/03 07:27:17;;;;;;;7.63;7.23;;;15.60;61.30;;;;;;5128090;27;43409;-70
2023/12/03 07:29:47;;;;;;;7.30;7.00;;;15.60;61.30;;;;;;5130710;27;43854;-70
2023/12/03 07:32:15;;;;;;;7.50;7.10;;;15.60;61.30;;;;;;5131190;27;43963;-70
2023/12/03 07:34:45;;;;;;;7.57;7.10;;;15.50;62.00;;;;;;5128479;27;43558;-70
2023/12/03 07:37:13;;;;;;;13.07;9.03;;;15.50;61.40;;;;;;5119786;27;43585;-70
2023/12/03 07:39:41;;;;;;;18.20;10.63;;;15.50;62.10;;;;;;5117983;27;45948;-70
2023/12/03 07:42:08;;;;;;;13.83;9.90;;;15.50;61.40;;;;;;5122992;27;44718;-70
2023/12/03 07:44:36;;;;;;;17.00;9.80;;;15.50;61.50;;;;;;5135099;27;43398;-70
2023/12/03 07:47:05;;;;;;;13.00;9.37;;;15.50;61.50;;;;;;5119939;27;43454;-70
2023/12/03 07:49:33;;;;;;;13.43;9.23;;;15.50;61.50;;;;;;5119042;27;45776;-69
2023/12/03 07:52:02;;;;;;;11.93;9.83;;;15.50;61.50;;;;;;5120093;27;43474;-70
2023/12/03 07:54:30;;;;;;;16.43;10.43;;;15.50;61.60;;;;;;5120748;27;43384;-72
2023/12/03 07:56:58;;;;;;;20.63;11.43;;;15.50;61.60;;;;;;5111557;27;44075;-72
2023/12/03 07:59:26;;;;;;;15.43;10.50;;;15.50;61.60;;;;;;5094989;27;46074;-72
2023/12/03 08:01:54;;;;;;;18.00;10.90;;;15.50;61.50;;;;;;5113468;27;43442;-72
2023/12/03 08:04:22;;;;;;;16.53;11.07;;;15.60;61.30;;;;;;5114072;27;43453;-72
2023/12/03 08:06:50;;;;;;;18.70;10.73;;;15.70;61.00;;;;;;5110851;27;43509;-72
2023/12/03 08:09:20;;;;;;;18.00;10.23;;;15.70;61.00;;;;;;5114039;27;43604;-71
2023/12/03 08:11:48;;;;;;;16.87;11.47;;;15.70;61.00;;;;;;5114834;27;43496;-72
2023/12/03 08:14:16;;;;;;;18.43;11.70;;;15.60;60.80;;;;;;5114315;27;44443;-72
2023/12/03 08:16:44;;;;;;;14.23;10.80;;;15.60;60.70;;;;;;5111739;27;43372;-72
2023/12/03 08:19:12;;;;;;;17.03;11.03;;;15.60;60.70;;;;;;5117689;27;43603;-72
2023/12/03 08:21:40;;;;;;;15.80;10.67;;;15.60;60.90;;;;;;5111303;27;44081;-72
2023/12/03 08:24:08;;;;;;;14.90;11.27;;;15.60;60.90;;;;;;5117992;27;43460;-72
2023/12/03 08:26:38;;;;;;;16.27;10.93;;;15.60;61.10;;;;;;5111968;27;43933;-72
2023/12/03 08:29:06;;;;;;;13.80;10.27;;;15.50;61.00;;;;;;5112635;27;43933;-72
2023/12/03 08:31:35;;;;;;;13.97;10.73;;;15.50;61.10;;;;;;5110515;27;43448;-72
2023/12/03 08:34:03;;;;;;;14.00;11.03;;;15.50;61.20;;;;;;5098737;27;43443;-72
2023/12/03 08:36:32;;;;;;;14.30;10.80;;;15.50;61.20;;;;;;5109676;27;44000;-72
2023/12/03 08:39:01;;;;;;;15.63;10.97;;;15.50;61.20;;;;;;5094279;27;45501;-71
2023/12/03 08:41:29;;;;;;;18.10;11.00;;;15.50;61.30;;;;;;5114930;27;43434;-71
2023/12/03 08:43:59;;;;;;;15.47;10.40;;;15.50;61.40;;;;;;5100252;27;43451;-71
2023/12/03 08:46:27;;;;;;;15.13;10.87;;;15.50;61.40;;;;;;5109339;27;43918;-73
2023/12/03 08:48:55;;;;;;;12.30;10.63;;;15.50;61.40;;;;;;5114101;27;43774;-73
2023/12/03 08:51:23;;;;;;;12.27;10.57;;;15.50;61.40;;;;;;5111265;27;43409;-73
2023/12/03 08:53:51;;;;;;;17.60;11.67;;;15.50;61.40;;;;;;5111102;27;43406;-72
2023/12/03 08:56:19;;;;;;;12.50;10.53;;;15.50;61.10;;;;;;5115450;27;43563;-73
2023/12/03 08:58:48;;;;;;;13.57;10.43;;;15.60;60.80;;;;;;5110054;27;43930;-72
2023/12/03 09:01:20;;;;;;;12.60;10.27;;;15.60;60.70;;;;;;5120384;27;43991;-73
2023/12/03 09:03:48;;;;;;;11.37;10.10;;;15.70;60.90;;;;;;5121735;27;43955;-69
2023/12/03 09:06:18;;;;;;;12.83;10.63;;;15.60;60.80;;;;;;5123077;27;43527;-69
2023/12/03 09:08:46;;;;;;;11.57;10.37;;;15.60;60.90;;;;;;5133124;27;43618;-68
2023/12/03 09:11:14;;;;;;;13.87;10.37;;;15.60;61.00;;;;;;5134817;27;43321;-70
2023/12/03 09:13:42;;;;;;;11.30;9.60;;;15.60;61.00;;;;;;5126745;27;43393;-69
2023/12/03 09:16:11;;;;;;;12.27;10.60;;;15.60;61.10;;;;;;5137276;27;43465;-70
2023/12/03 09:18:40;;;;;;;12.07;10.00;;;15.60;61.20;;;;;;5134677;27;43929;-70
2023/12/03 09:21:11;;;;;;;11.20;9.33;;;15.50;61.20;;;;;;5139778;27;43434;-70
2023/12/03 09:23:40;;;;;;;10.90;9.87;;;15.50;61.20;;;;;;5134258;27;43373;-70
2023/12/03 09:26:08;;;;;;;13.50;9.73;;;15.50;61.30;;;;;;5127912;27;43486;-69
2023/12/03 09:28:36;;;;;;;15.57;10.27;;;15.50;61.40;;;;;;5144722;27;43594;-70
2023/12/03 09:31:05;;;;;;;13.67;10.67;;;15.50;61.50;;;;;;5146903;27;43405;-68
2023/12/03 09:33:33;;;;;;;13.30;10.40;;;15.50;61.50;;;;;;5138353;27;43440;-71
2023/12/03 09:36:02;;;;;;;16.07;10.40;;;15.50;61.50;;;;;;5100676;27;43640;-71
2023/12/03 09:38:30;;;;;;;11.03;9.83;;;15.50;61.60;;;;;;5117815;27;44600;-71
2023/12/03 09:40:58;;;;;;;10.87;9.77;;;15.50;61.60;;;;;;5116994;27;43468;-71
2023/12/03 09:43:27;;;;;;;10.97;9.87;;;15.50;61.60;;;;;;5121504;27;43502;-71
2023/12/03 09:45:56;;;;;;;12.47;9.93;;;15.50;61.60;;;;;;5122093;27;43380;-71
2023/12/03 09:48:24;;;;;;;13.50;10.87;;;15.50;61.60;;;;;;5108663;27;45770;-71
2023/12/03 09:50:53;;;;;;;12.37;10.30;;;15.50;61.30;;;;;;5113777;27;43909;-71
2023/12/03 09:53:23;;;;;;;10.53;9.50;;;15.60;61.10;;;;;;5117074;27;44022;-71
2023/12/03 09:55:53;;;;;;;13.70;9.90;;;15.60;61.10;;;;;;5113891;27;43503;-71
2023/12/03 09:58:21;;;;;;;11.30;10.20;;;15.60;61.10;;;;;;5116825;27;45051;-71
2023/12/03 10:00:49;;;;;;;11.13;9.97;;;15.60;61.10;;;;;;5103086;27;43442;-71
2023/12/03 10:03:17;;;;;;;10.97;9.87;;;15.60;61.10;;;;;;5111825;27;43500;-71
2023/12/03 10:05:45;;;;;;;10.63;9.63;;;15.60;61.20;;;;;;5107043;27;44042;-70
2023/12/03 10:08:14;;;;;;;12.53;9.70;;;15.50;61.10;;;;;;5110871;27;43920;-71
2023/12/03 10:10:44;;;;;;;10.77;9.67;;;15.60;61.30;;;;;;5106764;27;43437;-71
2023/12/03 10:13:13;;;;;;;10.10;9.07;;;15.50;61.30;;;;;;5113693;27;43421;-70
2023/12/03 10:15:43;;;;;;;10.80;9.67;;;15.50;61.30;;;;;;5136458;27;43407;-70
2023/12/03 10:18:11;;;;;;;10.33;9.30;;;15.50;61.40;;;;;;5130760;27;43738;-70
2023/12/03 10:20:40;;;;;;;10.90;9.83;;;15.50;61.50;;;;;;5137975;27;43493;-70
2023/12/03 10:23:14;;;;;;;11.03;9.87;;;15.50;61.50;;;;;;5136323;27;43454;-71
2023/12/03 10:25:44;;;;;;;10.07;9.07;;;15.50;61.50;;;;;;5138816;27;43513;-70
2023/12/03 10:28:12;;;;;;;10.70;9.60;;;15.50;61.60;;;;;;5131850;27;43842;-71
2023/12/03 10:30:41;;;;;;;10.30;9.30;;;15.50;61.60;;;;;;5136911;27;43444;-71
2023/12/03 10:33:11;;;;;;;10.67;9.67;;;15.50;61.60;;;;;;5136248;27;43494;-70
2023/12/03 10:35:40;;;;;;;9.43;8.63;;;15.50;61.60;;;;;;5115363;27;43486;-70
2023/12/03 10:38:08;;;;;;;9.40;8.43;;;15.50;61.60;;;;;;5132836;27;43936;-70
2023/12/03 10:40:35;;;;;;;10.00;9.10;;;15.50;61.70;;;;;;5131911;27;43461;-70
2023/12/03 10:43:05;;;;;;;10.17;9.20;;;15.50;61.60;;;;;;5111397;27;43455;-70
2023/12/03 10:45:33;;;;;;;10.00;9.10;;;15.50;61.50;;;;;;5113030;27;43409;-70
2023/12/03 10:48:01;;;;;;;9.83;8.93;;;15.60;61.30;;;;;;5112025;27;43866;-70
2023/12/03 10:50:30;;;;;;;10.43;9.40;;;15.70;61.10;;;;;;5114253;27;43856;-71
2023/12/03 10:52:59;;;;;;;10.40;9.40;;;15.70;61.10;;;;;;5106868;27;43425;-70
2023/12/03 10:55:27;;;;;;;8.73;8.03;;;15.70;61.20;;;;;;5098329;27;43536;-70
2023/12/03 10:58:00;;;;;;;9.80;8.67;;;15.70;61.20;;;;;;5109942;27;43614;-70
2023/12/03 11:00:33;;;;;;;10.00;9.20;;;15.60;61.10;;;;;;5099073;27;44603;-71
2023/12/03 11:03:04;;;;;;;9.67;8.77;;;15.60;61.90;;;;;;5113227;27;43416;-70
2023/12/03 11:05:33;;;;;;;9.57;8.67;;;15.60;61.30;;;;;;5120232;27;43997;-70
2023/12/03 11:08:02;;;;;;;9.10;8.40;;;15.60;61.40;;;;;;5109733;27;43907;-71
2023/12/03 11:10:30;;;;;;;9.23;8.43;;;15.60;61.40;;;;;;5108459;27;43940;-70
2023/12/03 11:12:58;;;;;;;9.37;8.57;;;15.60;61.50;;;;;;5101272;27;43831;-70
2023/12/03 11:15:26;;;;;;;8.53;7.83;;;15.60;61.50;;;;;;5103601;27;43459;-70
2023/12/03 11:17:55;;;;;;;9.20;8.50;;;15.60;61.50;;;;;;5114204;27;43958;-70
2023/12/03 11:20:27;;;;;;;9.00;8.13;;;15.60;61.60;;;;;;5115352;27;43450;-70
2023/12/03 11:23:11;;;;;;;8.60;7.90;;;15.60;61.60;;;;;;5115087;27;43452;-72
2023/12/03 11:25:41;;;;;;;8.80;8.00;;;15.60;61.60;;;;;;5129079;27;43442;-69
2023/12/03 11:28:09;;;;;;;9.00;8.30;;;15.60;61.70;;;;;;5119715;27;46050;-70
2023/12/03 11:30:39;;;;;;;8.77;7.97;;;15.60;61.70;;;;;;5129899;27;43405;-70
2023/12/03 11:33:11;;;;;;;9.50;8.50;;;15.50;61.60;;;;;;5133753;27;43868;-70
2023/12/03 11:35:42;;;;;;;8.87;8.17;;;15.60;61.70;;;;;;5140053;27;43471;-70
2023/12/03 11:38:15;;;;;;;8.53;7.83;;;15.50;61.60;;;;;;5136833;27;43603;-69
2023/12/03 11:40:43;;;;;;;9.33;8.53;;;15.60;61.60;;;;;;5120419;27;44832;-69
2023/12/03 11:43:23;;;;;;;9.47;8.43;;;15.60;61.30;;;;;;5124144;27;44428;-70
2023/12/03 11:45:51;;;;;;;8.10;7.50;;;15.70;61.40;;;;;;5127559;27;43538;-69
2023/12/03 11:48:21;;;;;;;8.37;7.67;;;15.70;61.30;;;;;;5128934;27;43771;-70
2023/12/03 11:50:49;;;;;;;7.87;7.27;;;15.70;61.40;;;;;;5117911;27;45108;-70
2023/12/03 11:53:18;;;;;;;9.30;8.43;;;15.60;61.40;;;;;;5114054;27;43525;-70
2023/12/03 11:55:46;;;;;;;8.53;7.83;;;15.60;61.40;;;;;;5133450;27;43462;-70
2023/12/03 11:58:15;;;;;;;7.53;7.03;;;15.60;61.50;;;;;;5138822;27;43595;-69
2023/12/03 12:00:45;;;;;;;8.23;7.63;;;15.60;61.50;;;;;;5134022;27;43413;-70
2023/12/03 12:03:13;;;;;;;8.40;7.70;;;15.60;61.50;;;;;;5131374;27;43393;-69
2023/12/03 12:05:46;;;;;;;8.10;7.60;;;15.60;61.60;;;;;;5130333;27;43391;-69
2023/12/03 12:08:18;;;;;;;7.60;7.00;;;15.60;61.70;;;;;;5116187;27;45422;-70
2023/12/03 12:10:46;;;;;;;8.40;7.50;;;15.60;61.70;;;;;;5132703;27;43420;-70
2023/12/03 12:13:16;;;;;;;8.53;7.33;;;15.60;61.70;;;;;;5114577;27;43403;-69
2023/12/03 12:15:44;;;;;;;8.13;7.43;;;15.60;61.70;;;;;;5134587;27;43844;-69
2023/12/03 12:18:12;;;;;;;7.97;7.40;;;15.60;61.50;;;;;;5135190;27;43686;-70
2023/12/03 12:20:40;;;;;;;7.73;7.13;;;15.60;61.40;;;;;;5126912;27;43440;-69
2023/12/03 12:23:09;;;;;;;7.10;6.60;;;15.70;61.50;;;;;;5127649;27;43461;-70
2023/12/03 12:25:37;;;;;;;7.77;7.07;;;15.70;61.50;;;;;;5129128;27;43449;-70
2023/12/03 12:28:06;;;;;;;7.17;6.67;;;15.70;61.60;;;;;;5128707;27;45057;-70
2023/12/03 12:30:34;;;;;;;9.47;7.43;;;15.60;61.50;;;;;;5128916;27;43411;-70
2023/12/03 12:33:04;;;;;;;9.97;7.90;;;15.60;61.60;;;;;;5109785;27;43408;-70
2023/12/03 12:35:32;;;;;;;7.10;6.50;;;15.60;61.60;;;;;;5108907;27;43477;-70
2023/12/03 12:38:01;;;;;;;7.23;6.80;;;15.60;61.70;;;;;;5107999;27;43845;-70
2023/12/03 12:40:31;;;;;;;7.90;7.20;;;15.60;61.70;;;;;;5108387;27;43869;-71
2023/12/03 12:43:07;;;;;;;7.57;6.87;;;15.60;61.80;;;;;;5106592;27;43387;-71
2023/12/03 12:45:35;;;;;;;8.00;6.73;;;15.60;61.90;;;;;;5108671;27;43406;-71
2023/12/03 12:48:03;;;;;;;8.27;7.40;;;15.60;61.90;;;;;;5107624;27;43702;-71
2023/12/03 12:50:35;;;;;;;7.77;6.97;;;15.60;62.00;;;;;;5108342;27;43387;-70